Time;durP1;ratioP1;P1;durP2;ratioP2;P2;SDS_P1;SDS_P2;PMS_P1;PMS_P2;Temp;Humidity;BMP_temperature;BMP_pressure;BME280_temperature;BME280_humidity;BME280_pressure;Samples;Min_cycle;Max_cycle;Signal;HPM_P1;HPM_P2
2022/05/20 00:10:15;;;;;;;17.00;12.60;;;12.80;99.90;;;;;;4958992;28;20068;-81
2022/05/20 00:15:08;;;;;;;11.95;9.05;;;12.70;99.90;;;;;;4963697;28;20050;-81
2022/05/20 00:17:34;;;;;;;14.65;9.77;;;12.60;99.90;;;;;;4965324;28;20491;-81
2022/05/20 00:20:01;;;;;;;11.20;9.20;;;12.60;99.90;;;;;;4971935;28;20105;-81
2022/05/20 00:22:27;;;;;;;12.63;9.77;;;12.60;99.90;;;;;;4970479;28;20048;-81
2022/05/20 00:27:37;;;;;;;12.18;8.63;;;12.50;99.90;;;;;;4946062;28;20057;-81
2022/05/20 00:30:04;;;;;;;13.13;10.40;;;12.50;99.90;;;;;;4966642;28;20035;-81
2022/05/20 00:32:30;;;;;;;13.93;9.13;;;12.50;99.90;;;;;;4952657;28;20038;-81
2022/05/20 00:34:55;;;;;;;11.38;9.25;;;12.60;99.90;;;;;;4956263;28;20049;-81
2022/05/20 00:37:21;;;;;;;11.50;9.25;;;12.60;99.90;;;;;;4950800;28;20494;-81
2022/05/20 00:39:47;;;;;;;12.00;9.77;;;12.60;99.90;;;;;;4957225;28;20035;-80
2022/05/20 00:42:16;;;;;;;11.18;8.85;;;12.50;99.90;;;;;;4936294;28;20065;-81
2022/05/20 00:44:42;;;;;;;10.13;9.10;;;12.50;99.90;;;;;;4951285;28;20133;-81
2022/05/20 00:47:09;;;;;;;11.95;8.90;;;12.50;99.90;;;;;;4951978;28;20178;-81
2022/05/20 00:49:36;;;;;;;13.18;8.80;;;12.50;99.90;;;;;;4957525;28;20046;-81
2022/05/20 00:52:04;;;;;;;12.07;9.52;;;12.50;99.90;;;;;;4945518;28;20113;-81
2022/05/20 00:54:35;;;;;;;11.40;8.88;;;12.60;99.90;;;;;;4967724;28;20035;-81
2022/05/20 00:57:23;;;;;;;10.65;9.43;;;12.50;99.90;;;;;;4946256;28;20043;-80
2022/05/20 01:00:01;;;;;;;11.50;8.52;;;12.60;99.90;;;;;;4938175;28;20042;-81
2022/05/20 01:02:30;;;;;;;10.75;9.43;;;12.50;99.90;;;;;;4950405;28;20034;-81
2022/05/20 01:05:00;;;;;;;12.25;9.38;;;12.60;99.90;;;;;;4950818;28;20402;-81
2022/05/20 01:07:28;;;;;;;11.48;8.95;;;12.60;99.90;;;;;;4971124;28;20049;-80
2022/05/20 01:09:54;;;;;;;12.48;9.57;;;12.60;99.90;;;;;;4970656;28;20034;-80
2022/05/20 01:12:21;;;;;;;10.13;8.80;;;12.60;99.90;;;;;;4968050;28;20041;-80
2022/05/20 01:14:49;;;;;;;14.65;10.05;;;12.50;99.90;;;;;;4974707;28;20086;-80
2022/05/20 01:17:15;;;;;;;12.40;8.20;;;12.50;99.90;;;;;;4954360;28;20058;-81
2022/05/20 01:19:51;;;;;;;10.45;8.68;;;12.60;99.90;;;;;;4976221;28;20038;-81
2022/05/20 01:22:47;;;;;;;11.32;8.25;;;12.50;99.90;;;;;;4974904;28;20580;-81
2022/05/20 01:25:13;;;;;;;9.70;7.88;;;12.50;99.90;;;;;;4953073;28;20575;-81
2022/05/20 01:27:46;;;;;;;12.23;7.65;;;12.40;99.90;;;;;;4959036;28;20116;-81
2022/05/20 01:30:14;;;;;;;10.25;7.90;;;12.40;99.90;;;;;;4974982;28;20042;-80
2022/05/20 01:32:40;;;;;;;10.25;7.25;;;12.30;99.90;;;;;;4959721;28;20077;-81
2022/05/20 01:35:11;;;;;;;10.57;7.28;;;12.30;99.90;;;;;;4973863;28;20040;-81
2022/05/20 01:37:37;;;;;;;10.20;7.35;;;12.20;99.90;;;;;;4973960;28;21337;-81
2022/05/20 01:40:03;;;;;;;11.77;7.75;;;12.20;99.90;;;;;;4959462;28;20046;-81
2022/05/20 01:42:45;;;;;;;10.75;7.88;;;12.20;99.90;;;;;;4953698;28;20057;-81
2022/05/20 01:45:17;;;;;;;11.68;7.93;;;12.20;99.90;;;;;;4971787;28;20506;-81
2022/05/20 01:48:02;;;;;;;;;;;12.20;99.90;;;;;;4973490;28;20119;-81
2022/05/20 01:50:37;;;;;;;9.85;7.68;;;12.20;99.90;;;;;;4974335;28;19922;-81
2022/05/20 01:53:07;;;;;;;8.85;7.80;;;12.10;99.90;;;;;;4971128;28;20427;-80
2022/05/20 01:55:51;;;;;;;14.23;8.40;;;12.10;99.90;;;;;;4956864;28;20093;-81
2022/05/20 01:58:33;;;;;;;12.05;9.30;;;12.10;99.90;;;;;;4965948;28;20515;-81
2022/05/20 02:01:03;;;;;;;13.05;8.43;;;12.10;99.90;;;;;;4990289;28;20046;-81
2022/05/20 02:03:40;;;;;;;9.77;8.20;;;12.10;99.90;;;;;;4963999;28;20034;-81
2022/05/20 02:06:12;;;;;;;9.70;8.07;;;12.10;99.90;;;;;;4970875;28;20491;-81
2022/05/20 02:08:55;;;;;;;12.35;8.23;;;12.20;99.90;;;;;;4948496;28;20153;-81
2022/05/20 02:11:50;;;;;;;10.15;8.40;;;12.20;99.90;;;;;;4955351;28;20515;-81
2022/05/20 02:14:27;;;;;;;11.20;7.78;;;12.20;99.90;;;;;;4965442;28;20043;-81
2022/05/20 02:17:00;;;;;;;12.50;8.10;;;12.20;99.90;;;;;;4948778;28;20038;-80
2022/05/20 02:19:40;;;;;;;;;;;12.20;99.90;;;;;;4966159;28;20042;-81
2022/05/20 02:22:13;;;;;;;11.63;8.93;;;12.30;99.90;;;;;;4954665;28;19990;-81
2022/05/20 02:24:40;;;;;;;13.20;8.73;;;12.20;99.90;;;;;;4949678;28;20042;-81
2022/05/20 02:27:11;;;;;;;12.15;9.20;;;12.20;99.90;;;;;;4954800;28;20419;-81
2022/05/20 02:30:00;;;;;;;12.55;9.13;;;12.20;99.90;;;;;;4966323;28;20093;-81
2022/05/20 02:32:50;;;;;;;13.30;8.75;;;12.20;99.90;;;;;;4972825;28;20038;-81
2022/05/20 02:35:16;;;;;;;9.38;8.48;;;12.20;99.90;;;;;;4969911;28;20030;-81
2022/05/20 02:37:42;;;;;;;11.57;8.68;;;12.10;99.90;;;;;;4957747;28;20046;-81
2022/05/20 02:40:11;;;;;;;13.23;8.55;;;12.10;99.90;;;;;;4958351;28;20069;-80
2022/05/20 02:42:36;;;;;;;12.82;9.10;;;12.10;99.90;;;;;;4957410;28;20419;-80
2022/05/20 02:45:03;;;;;;;13.27;9.18;;;12.00;99.90;;;;;;4958684;28;20050;-80
2022/05/20 02:47:32;;;;;;;12.15;8.77;;;12.00;99.90;;;;;;4957639;28;20054;-80
2022/05/20 02:49:59;;;;;;;11.98;8.73;;;12.00;99.90;;;;;;4970784;28;20042;-80
2022/05/20 02:52:25;;;;;;;10.82;9.15;;;11.90;99.90;;;;;;4975018;28;20117;-80
2022/05/20 02:54:50;;;;;;;14.45;9.60;;;11.90;99.90;;;;;;4951612;28;20122;-80
2022/05/20 02:57:16;;;;;;;16.58;9.02;;;11.90;99.90;;;;;;4958725;28;20030;-80
2022/05/20 03:05:12;;;;;;;12.43;9.07;;;11.70;99.90;;;;;;4960616;28;20042;-80
2022/05/20 03:07:37;;;;;;;11.13;9.65;;;11.70;99.90;;;;;;4955956;28;20037;-80
2022/05/20 03:10:03;;;;;;;14.00;9.95;;;11.70;99.90;;;;;;4955251;28;21547;-80
2022/05/20 03:12:29;;;;;;;13.27;10.15;;;11.60;99.90;;;;;;4970296;28;20124;-80
2022/05/20 03:14:55;;;;;;;16.77;9.77;;;11.50;99.90;;;;;;4948703;28;20083;-80
2022/05/20 03:17:21;;;;;;;15.40;9.80;;;11.60;99.90;;;;;;4963074;28;20049;-80
2022/05/20 03:19:46;;;;;;;13.15;10.15;;;11.60;99.90;;;;;;4931289;28;20034;-80
2022/05/20 03:22:12;;;;;;;11.45;9.75;;;11.50;99.90;;;;;;4935308;28;20577;-80
2022/05/20 03:24:38;;;;;;;16.30;10.32;;;11.50;99.90;;;;;;4965044;28;20037;-80
2022/05/20 03:27:05;;;;;;;17.30;10.65;;;11.50;99.90;;;;;;4955870;28;20140;-79
2022/05/20 03:29:32;;;;;;;14.02;10.45;;;11.50;99.90;;;;;;4985940;28;20038;-80
2022/05/20 03:31:58;;;;;;;16.13;11.57;;;11.50;99.90;;;;;;4952455;28;20125;-80
2022/05/20 03:34:25;;;;;;;14.88;9.98;;;11.60;99.90;;;;;;4972536;28;20077;-80
2022/05/20 03:36:51;;;;;;;17.20;10.35;;;11.60;99.90;;;;;;4956489;28;20117;-80
2022/05/20 03:39:21;;;;;;;15.45;10.30;;;11.60;99.90;;;;;;4947347;28;20117;-80
2022/05/20 03:41:47;;;;;;;15.73;11.15;;;11.60;99.90;;;;;;4972903;28;20042;-80
2022/05/20 03:44:14;;;;;;;13.63;10.68;;;11.60;99.90;;;;;;4956504;28;20045;-80
2022/05/20 03:46:42;;;;;;;13.23;10.85;;;11.60;99.90;;;;;;4971984;28;20410;-80
2022/05/20 03:49:08;;;;;;;14.45;10.60;;;11.70;99.90;;;;;;4936085;28;20439;-80
2022/05/20 03:51:35;;;;;;;17.65;10.65;;;11.60;99.90;;;;;;4973773;28;20042;-80
2022/05/20 03:54:01;;;;;;;13.98;9.77;;;11.70;99.90;;;;;;4971050;28;20543;-80
2022/05/20 03:56:27;;;;;;;17.55;10.82;;;11.70;99.90;;;;;;4972793;28;20034;-80
2022/05/20 03:58:52;;;;;;;17.52;11.73;;;11.70;99.90;;;;;;4970666;28;20045;-80
2022/05/20 04:04:03;;;;;;;11.77;9.98;;;11.70;99.90;;;;;;4969997;28;20054;-80
2022/05/20 04:06:29;;;;;;;15.98;10.95;;;11.70;99.90;;;;;;4973111;28;20046;-79
2022/05/20 04:08:55;;;;;;;14.65;10.65;;;11.70;99.90;;;;;;4965732;28;20380;-80
2022/05/20 04:11:21;;;;;;;13.30;10.60;;;11.70;99.90;;;;;;4955662;28;20070;-80
2022/05/20 04:13:46;;;;;;;12.48;10.40;;;11.70;99.90;;;;;;4972105;28;20034;-79
2022/05/20 04:16:14;;;;;;;13.57;11.02;;;11.70;99.90;;;;;;4956664;28;20054;-80
2022/05/20 04:18:41;;;;;;;14.63;10.82;;;11.70;99.90;;;;;;4966622;28;20074;-80
2022/05/20 04:21:08;;;;;;;15.55;11.60;;;11.80;99.90;;;;;;4973399;28;20042;-80
2022/05/20 04:23:34;;;;;;;15.63;10.60;;;11.80;99.90;;;;;;4949766;28;20549;-79
2022/05/20 04:26:00;;;;;;;16.65;11.50;;;11.80;99.90;;;;;;4962020;28;20035;-79
2022/05/20 04:28:26;;;;;;;17.27;11.15;;;11.90;99.90;;;;;;4950626;28;20126;-79
2022/05/20 04:30:58;;;;;;;15.98;11.35;;;11.90;99.90;;;;;;4957178;28;20133;-79
2022/05/20 04:33:25;;;;;;;15.37;11.10;;;11.90;99.90;;;;;;4972132;28;20081;-79
2022/05/20 04:35:51;;;;;;;16.38;10.88;;;12.00;99.90;;;;;;4971776;28;20074;-79
2022/05/20 04:38:17;;;;;;;14.98;10.02;;;12.00;99.90;;;;;;4953783;28;20065;-79
2022/05/20 04:40:43;;;;;;;16.38;10.80;;;12.10;99.90;;;;;;4955724;28;20038;-80
2022/05/20 04:48:37;;;;;;;17.27;10.73;;;12.10;99.90;;;;;;4971697;28;20049;-79
2022/05/20 04:51:03;;;;;;;14.73;10.43;;;12.10;99.90;;;;;;4957428;28;20043;-79
2022/05/20 04:56:13;;;;;;;14.30;9.90;;;12.20;99.90;;;;;;4973839;28;20558;-79
2022/05/20 04:58:39;;;;;;;14.13;10.13;;;12.20;99.90;;;;;;4952726;28;20031;-79
2022/05/20 05:01:04;;;;;;;14.50;10.35;;;12.30;99.90;;;;;;4957428;28;20045;-79
2022/05/20 05:03:30;;;;;;;14.38;9.73;;;12.20;99.90;;;;;;4956548;28;20042;-79
2022/05/20 05:05:57;;;;;;;14.40;9.77;;;12.30;99.90;;;;;;4966852;28;20053;-79
2022/05/20 05:08:22;;;;;;;17.65;9.57;;;12.30;99.90;;;;;;4958638;28;20039;-79
2022/05/20 05:10:48;;;;;;;13.75;9.30;;;12.20;99.90;;;;;;4954091;28;20039;-79
2022/05/20 05:13:15;;;;;;;11.80;8.30;;;12.20;99.90;;;;;;4992029;28;20031;-79
2022/05/20 05:15:44;;;;;;;12.15;8.85;;;12.20;99.90;;;;;;4973856;28;20058;-79
2022/05/20 05:18:14;;;;;;;14.68;10.02;;;12.20;99.90;;;;;;4975388;28;20046;-79
2022/05/20 05:20:51;;;;;;;16.17;9.63;;;12.20;99.90;;;;;;4975131;28;20070;-79
2022/05/20 05:23:19;;;;;;;19.40;10.90;;;12.20;99.90;;;;;;4973183;28;20074;-79
2022/05/20 05:25:45;;;;;;;17.73;10.77;;;12.30;99.90;;;;;;4973834;28;20458;-79
2022/05/20 05:28:12;;;;;;;20.00;10.93;;;12.30;99.90;;;;;;4972187;28;20047;-79
2022/05/20 05:30:42;;;;;;;15.57;9.75;;;12.30;99.90;;;;;;4956710;28;20034;-79
2022/05/20 05:33:08;;;;;;;16.13;10.95;;;12.40;99.90;;;;;;4974386;28;20503;-80
2022/05/20 05:35:34;;;;;;;19.00;10.60;;;12.40;99.90;;;;;;4954255;28;20034;-79
2022/05/20 05:38:00;;;;;;;15.40;9.63;;;12.40;99.90;;;;;;4943647;28;20117;-80
2022/05/20 05:40:30;;;;;;;13.88;9.13;;;12.50;99.90;;;;;;4958942;28;20042;-81
2022/05/20 05:42:58;;;;;;;17.58;9.85;;;12.50;99.90;;;;;;4992667;28;20074;-79
2022/05/20 05:45:26;;;;;;;13.40;8.10;;;12.50;99.90;;;;;;4959493;28;20121;-80
2022/05/20 05:47:58;;;;;;;13.90;9.25;;;12.50;99.90;;;;;;4958662;28;20507;-80
2022/05/20 05:50:25;;;;;;;12.20;9.30;;;12.50;99.90;;;;;;4957333;28;20041;-80
2022/05/20 05:52:59;;;;;;;15.48;9.55;;;12.50;99.90;;;;;;4956635;28;20526;-80
2022/05/20 05:55:26;;;;;;;14.93;9.23;;;12.50;99.90;;;;;;4958974;28;20046;-81
2022/05/20 05:57:51;;;;;;;15.60;9.13;;;12.50;99.90;;;;;;4969503;28;20483;-80
2022/05/20 06:00:18;;;;;;;13.30;8.55;;;12.60;99.90;;;;;;4954722;28;20084;-80
2022/05/20 06:02:44;;;;;;;16.20;9.82;;;12.60;99.90;;;;;;4956901;28;20049;-82
2022/05/20 06:05:09;;;;;;;17.33;9.05;;;12.60;99.90;;;;;;4953886;28;20112;-80
2022/05/20 06:07:35;;;;;;;12.50;8.10;;;12.70;99.90;;;;;;4954464;28;20052;-81
2022/05/20 06:10:01;;;;;;;12.93;8.52;;;12.70;99.90;;;;;;4948900;28;20097;-80
2022/05/20 06:12:28;;;;;;;12.20;8.70;;;12.70;99.90;;;;;;4965526;28;20728;-80
2022/05/20 06:14:53;;;;;;;17.98;8.40;;;12.70;99.90;;;;;;4950542;28;20054;-80
2022/05/20 06:17:19;;;;;;;11.43;7.32;;;13.10;99.90;;;;;;4970026;28;20490;-80
2022/05/20 06:19:45;;;;;;;12.70;8.43;;;12.60;99.90;;;;;;4952406;28;20045;-80
2022/05/20 06:22:10;;;;;;;14.02;8.00;;;12.60;99.90;;;;;;4952815;28;20058;-80
2022/05/20 06:24:37;;;;;;;11.13;6.78;;;12.70;99.90;;;;;;4967645;28;20061;-78
2022/05/20 06:27:03;;;;;;;11.75;6.90;;;12.70;99.90;;;;;;4950842;28;20046;-78
2022/05/20 06:29:29;;;;;;;14.60;7.50;;;12.70;99.90;;;;;;4952767;28;20054;-80
2022/05/20 06:31:54;;;;;;;11.57;7.60;;;12.80;99.90;;;;;;4973397;28;20124;-79
2022/05/20 06:34:20;;;;;;;11.82;7.15;;;12.90;99.90;;;;;;4955750;28;20615;-80
2022/05/20 06:42:14;;;;;;;11.25;7.60;;;13.20;99.90;;;;;;4972257;28;20467;-80
2022/05/20 06:44:40;;;;;;;10.38;7.25;;;13.30;99.90;;;;;;4973710;28;20162;-80
2022/05/20 06:47:06;;;;;;;11.18;7.28;;;13.40;99.90;;;;;;4957047;28;20076;-79
2022/05/20 06:49:32;;;;;;;11.25;7.45;;;13.40;99.90;;;;;;4973853;28;20066;-79
2022/05/20 06:52:00;;;;;;;11.43;7.55;;;13.40;99.90;;;;;;4956080;28;20084;-79
2022/05/20 07:00:59;;;;;;;14.10;8.02;;;13.30;99.90;;;;;;4978310;28;20065;-79
2022/05/20 07:03:25;;;;;;;11.57;7.88;;;13.30;99.90;;;;;;4956408;28;20121;-80
2022/05/20 07:05:51;;;;;;;11.05;7.78;;;13.30;99.90;;;;;;4958594;28;20499;-79
2022/05/20 07:08:17;;;;;;;11.98;8.57;;;13.20;99.90;;;;;;4963412;28;20089;-80
2022/05/20 07:10:43;;;;;;;13.13;8.30;;;13.30;99.90;;;;;;4951751;28;20062;-79
2022/05/20 07:13:08;;;;;;;14.40;8.27;;;13.40;99.90;;;;;;4955605;28;20072;-80
2022/05/20 07:15:34;;;;;;;12.82;8.10;;;13.60;99.90;;;;;;4947073;28;20570;-79
2022/05/20 07:18:00;;;;;;;13.02;8.40;;;13.50;99.90;;;;;;4947177;28;20156;-81
2022/05/20 07:20:26;;;;;;;13.57;8.50;;;13.70;99.90;;;;;;4956511;28;20038;-80
2022/05/20 07:22:51;;;;;;;14.43;9.07;;;13.70;99.90;;;;;;4962256;28;20038;-80
2022/05/20 07:25:19;;;;;;;13.40;8.30;;;13.70;99.90;;;;;;4961670;28;20459;-80
2022/05/20 07:27:45;;;;;;;11.80;7.57;;;13.90;99.90;;;;;;4962193;28;20070;-80
2022/05/20 07:30:12;;;;;;;11.32;8.18;;;14.10;99.90;;;;;;4959532;28;20080;-81
2022/05/20 07:32:38;;;;;;;15.48;9.00;;;14.10;99.90;;;;;;4943961;28;20042;-80
2022/05/20 07:35:04;;;;;;;17.02;10.23;;;14.20;99.90;;;;;;4929689;28;20043;-80
2022/05/20 07:37:30;;;;;;;13.05;10.27;;;14.20;99.90;;;;;;4946173;28;20034;-84
2022/05/20 07:39:57;;;;;;;10.95;8.93;;;14.30;99.90;;;;;;4948419;28;20030;-80
2022/05/20 07:42:22;;;;;;;17.42;10.30;;;14.30;99.90;;;;;;4956196;28;20070;-79
2022/05/20 07:44:49;;;;;;;12.05;9.30;;;14.50;99.90;;;;;;4945102;28;20070;-79
2022/05/20 07:47:15;;;;;;;9.80;8.77;;;14.40;99.90;;;;;;4942592;28;20492;-81
2022/05/20 07:49:40;;;;;;;10.75;8.25;;;14.50;99.90;;;;;;4927818;28;20044;-82
2022/05/20 07:52:10;;;;;;;10.10;8.63;;;14.40;99.90;;;;;;4932594;28;20045;-84
2022/05/20 07:54:40;;;;;;;12.57;8.77;;;14.50;99.90;;;;;;4949046;28;20042;-85
2022/05/20 07:57:12;;;;;;;11.45;7.78;;;14.70;99.90;;;;;;4943725;28;20096;-80
2022/05/20 07:59:45;;;;;;;10.27;7.18;;;14.90;99.90;;;;;;4958823;28;20034;-81
2022/05/20 08:02:12;;;;;;;11.43;7.03;;;15.10;99.90;;;;;;4957102;28;20074;-80
2022/05/20 08:04:55;;;;;;;8.77;7.50;;;15.10;99.90;;;;;;4952034;28;20046;-81
2022/05/20 08:07:26;;;;;;;10.88;8.05;;;15.20;99.90;;;;;;4944410;28;20046;-81
2022/05/20 08:09:52;;;;;;;9.40;7.20;;;15.30;99.90;;;;;;4941260;28;20046;-82
2022/05/20 08:12:18;;;;;;;10.63;8.10;;;15.20;99.90;;;;;;4959997;28;20042;-82
2022/05/20 08:14:44;;;;;;;9.70;7.38;;;15.50;99.90;;;;;;4927687;28;20568;-82
2022/05/20 08:17:09;;;;;;;10.52;6.80;;;15.60;99.90;;;;;;4926903;28;20034;-81
2022/05/20 08:19:37;;;;;;;9.40;6.32;;;15.80;99.90;;;;;;4945056;28;20045;-81
2022/05/20 08:22:03;;;;;;;8.65;6.30;;;16.00;99.90;;;;;;4945959;28;20439;-78
2022/05/20 08:24:30;;;;;;;7.70;5.80;;;16.00;99.90;;;;;;4957193;28;20039;-80
2022/05/20 08:26:56;;;;;;;10.82;6.93;;;16.10;99.90;;;;;;4944049;28;20054;-79
2022/05/20 08:29:22;;;;;;;10.07;7.10;;;16.10;99.90;;;;;;4944467;28;20046;-78
2022/05/20 08:31:48;;;;;;;9.10;6.55;;;16.10;99.90;;;;;;4957568;28;20053;-75
2022/05/20 08:34:14;;;;;;;8.15;6.53;;;16.30;99.90;;;;;;4958314;28;20038;-74
2022/05/20 08:36:40;;;;;;;8.48;5.85;;;16.40;99.90;;;;;;4940685;28;20350;-74
2022/05/20 08:39:10;;;;;;;8.88;5.55;;;16.50;99.90;;;;;;4942430;28;20162;-74
2022/05/20 08:41:54;;;;;;;10.20;5.65;;;16.60;99.90;;;;;;4944379;28;20056;-77
2022/05/20 08:44:23;;;;;;;10.60;6.65;;;16.80;99.90;;;;;;4961030;28;20630;-77
2022/05/20 08:46:50;;;;;;;10.82;6.55;;;16.80;99.90;;;;;;4961292;28;20038;-74
2022/05/20 08:49:21;;;;;;;8.55;6.53;;;16.90;99.90;;;;;;4959241;28;20534;-78
2022/05/20 08:51:52;;;;;;;8.07;5.70;;;17.00;99.90;;;;;;4956971;28;20507;-76
2022/05/20 08:54:18;;;;;;;8.02;5.78;;;17.10;99.90;;;;;;4928767;28;20207;-75
2022/05/20 08:56:44;;;;;;;9.45;6.75;;;16.90;99.90;;;;;;4948234;28;20046;-75
2022/05/20 08:59:19;;;;;;;10.07;6.13;;;16.80;99.90;;;;;;4947349;28;20411;-75
2022/05/20 09:01:49;;;;;;;8.40;6.20;;;16.70;99.90;;;;;;4947607;28;20042;-74
2022/05/20 09:04:18;;;;;;;7.70;5.97;;;16.50;99.90;;;;;;4962277;28;20054;-74
2022/05/20 09:06:58;;;;;;;8.88;6.13;;;16.40;99.90;;;;;;4954085;28;20051;-76
2022/05/20 09:09:27;;;;;;;8.20;6.00;;;16.60;99.90;;;;;;4957615;28;20130;-79
2022/05/20 09:11:57;;;;;;;11.80;6.82;;;16.90;99.90;;;;;;4944045;28;20054;-74
2022/05/20 09:17:10;;;;;;;9.15;6.05;;;17.30;99.90;;;;;;4959759;28;20520;-76
2022/05/20 09:19:37;;;;;;;7.65;6.25;;;17.50;99.90;;;;;;4955674;28;20042;-75
2022/05/20 09:22:12;;;;;;;10.00;6.85;;;17.60;99.90;;;;;;4942480;28;20050;-79
2022/05/20 09:24:43;;;;;;;12.25;6.85;;;17.80;99.90;;;;;;4956580;28;20065;-78
2022/05/20 09:27:12;;;;;;;7.95;5.80;;;17.90;99.90;;;;;;4972087;28;20076;-78
2022/05/20 09:29:45;;;;;;;7.00;5.15;;;18.00;99.90;;;;;;4956203;28;20499;-78
2022/05/20 09:32:34;;;;;;;5.88;4.78;;;17.80;99.90;;;;;;4945548;28;20097;-78
2022/05/20 09:35:22;;;;;;;8.75;5.93;;;17.90;99.90;;;;;;4948424;28;20042;-78
2022/05/20 09:37:50;;;;;;;8.80;5.97;;;18.00;99.90;;;;;;4952169;28;20109;-79
2022/05/20 09:40:21;;;;;;;9.68;6.05;;;18.20;99.90;;;;;;4969956;28;20121;-74
2022/05/20 09:43:02;;;;;;;7.15;5.93;;;18.30;99.90;;;;;;4975360;28;20040;-74
2022/05/20 09:45:28;;;;;;;8.35;5.60;;;18.40;99.90;;;;;;4961160;28;20082;-79
2022/05/20 09:47:57;;;;;;;9.35;5.75;;;18.60;99.90;;;;;;4927397;28;20054;-77
2022/05/20 09:50:28;;;;;;;8.38;5.45;;;18.80;99.90;;;;;;4950947;28;20050;-75
2022/05/20 09:53:03;;;;;;;7.90;5.63;;;18.80;99.90;;;;;;4967027;28;20098;-74
2022/05/20 09:55:31;;;;;;;7.80;4.72;;;18.90;99.90;;;;;;4965104;28;20042;-76
2022/05/20 09:58:11;;;;;;;5.57;4.95;;;18.90;99.90;;;;;;4978719;28;20035;-76
2022/05/20 10:00:41;;;;;;;10.60;5.43;;;19.00;99.90;;;;;;4944925;28;20153;-76
2022/05/20 10:03:33;;;;;;;5.25;4.75;;;18.90;99.90;;;;;;4960380;28;20108;-78
2022/05/20 10:06:21;;;;;;;5.80;4.38;;;18.90;99.90;;;;;;4955228;28;20101;-77
2022/05/20 10:09:27;;;;;;;5.93;4.63;;;18.80;99.90;;;;;;4958971;28;20038;-77
2022/05/20 10:12:06;;;;;;;8.38;5.68;;;18.70;99.90;;;;;;4978626;28;20042;-76
2022/05/20 10:14:43;;;;;;;9.25;5.28;;;18.80;99.90;;;;;;4977156;28;20030;-77
2022/05/20 10:17:43;;;;;;;9.15;6.47;;;18.80;99.90;;;;;;4962091;28;20038;-75
2022/05/20 10:20:17;;;;;;;8.10;6.05;;;18.80;99.90;;;;;;4961875;28;20074;-75
2022/05/20 10:22:43;;;;;;;7.43;5.32;;;18.90;99.90;;;;;;4972994;28;20495;-74
2022/05/20 10:25:31;;;;;;;8.25;5.10;;;19.00;99.90;;;;;;4971199;28;20089;-74
2022/05/20 10:34:35;;;;;;;6.13;5.07;;;19.10;99.90;;;;;;4972471;28;20074;-74
2022/05/20 10:37:16;;;;;;;6.47;5.20;;;19.20;99.90;;;;;;4991624;28;20053;-75
2022/05/20 10:39:57;;;;;;;5.88;4.82;;;19.30;99.90;;;;;;4968384;28;20121;-75
2022/05/20 10:42:44;;;;;;;6.97;5.85;;;19.30;99.90;;;;;;4976440;28;20137;-75
2022/05/20 10:48:34;;;;;;;7.00;6.03;;;19.30;99.90;;;;;;4955862;28;20130;-74
2022/05/20 10:51:37;;;;;;;8.32;6.05;;;19.30;99.90;;;;;;4964915;28;20053;-74
2022/05/20 10:54:30;;;;;;;7.63;6.18;;;19.30;99.90;;;;;;4968807;28;20046;-73
2022/05/20 10:57:26;;;;;;;9.77;5.95;;;19.30;99.90;;;;;;4967533;28;20040;-74
2022/05/20 11:00:22;;;;;;;6.50;5.55;;;19.30;99.90;;;;;;4960826;28;20043;-75
2022/05/20 11:03:11;;;;;;;8.40;6.22;;;19.30;99.90;;;;;;4968534;28;20101;-74
2022/05/20 11:06:04;;;;;;;6.47;5.07;;;19.40;99.90;;;;;;4956835;28;20147;-73
2022/05/20 11:08:36;;;;;;;3.47;3.17;;;19.40;99.90;;;;;;4961163;28;20329;-73
2022/05/20 11:11:23;;;;;;;6.45;3.38;;;19.40;98.80;;;;;;4959052;28;20419;-73
2022/05/20 11:14:03;;;;;;;4.68;3.88;;;19.40;99.90;;;;;;4951415;28;20085;-74
2022/05/20 11:17:21;;;;;;;6.30;4.45;;;19.40;99.50;;;;;;4969201;28;20093;-75
2022/05/20 11:20:13;;;;;;;6.22;5.60;;;19.40;99.90;;;;;;4957493;28;20443;-74
2022/05/20 11:22:48;;;;;;;10.85;9.10;;;19.40;99.90;;;;;;4960635;28;20046;-76
2022/05/20 11:25:53;;;;;;;11.60;9.27;;;19.50;99.90;;;;;;4948724;28;20144;-81
2022/05/20 11:28:39;;;;;;;9.32;8.40;;;19.70;99.90;;;;;;4943986;28;20061;-75
2022/05/20 11:31:08;;;;;;;11.40;8.60;;;19.80;99.90;;;;;;4958368;28;20035;-74
2022/05/20 11:33:39;;;;;;;10.23;9.13;;;20.00;99.90;;;;;;4957282;28;20043;-77
2022/05/20 11:36:21;;;;;;;9.77;8.50;;;20.20;99.90;;;;;;4952301;28;20034;-78
2022/05/20 11:39:09;;;;;;;10.32;9.10;;;20.10;99.90;;;;;;4942066;28;20063;-75
2022/05/20 11:41:58;;;;;;;10.57;9.05;;;20.20;99.90;;;;;;4950579;28;20077;-75
2022/05/20 11:44:48;;;;;;;12.73;11.60;;;20.30;99.90;;;;;;4954771;28;20042;-74
2022/05/20 11:47:45;;;;;;;12.63;11.27;;;20.40;99.90;;;;;;4977495;28;20049;-75
2022/05/20 11:50:45;;;;;;;13.57;12.18;;;20.50;99.90;;;;;;4941685;28;20070;-74
2022/05/20 11:53:30;;;;;;;13.55;12.15;;;20.50;99.30;;;;;;4939952;28;20046;-74
2022/05/20 11:56:19;;;;;;;12.95;11.65;;;20.40;99.90;;;;;;4942625;28;20030;-76
2022/05/20 11:58:57;;;;;;;13.75;12.35;;;20.50;99.90;;;;;;4952664;28;20197;-74
2022/05/20 12:01:25;;;;;;;12.60;11.07;;;20.60;99.90;;;;;;4950600;28;20130;-75
2022/05/20 12:04:07;;;;;;;12.98;11.60;;;20.70;99.80;;;;;;4938742;28;20077;-75
2022/05/20 12:06:49;;;;;;;12.13;10.82;;;20.70;99.10;;;;;;4956656;28;20039;-76
2022/05/20 12:09:31;;;;;;;13.52;12.13;;;20.60;98.80;;;;;;4960881;28;20046;-75
2022/05/20 12:12:18;;;;;;;14.02;11.63;;;20.70;99.10;;;;;;4954565;28;20125;-74
2022/05/20 12:14:57;;;;;;;15.57;12.00;;;20.70;99.90;;;;;;4946442;28;20418;-75
2022/05/20 12:17:39;;;;;;;12.30;11.00;;;20.70;99.90;;;;;;4957376;28;20046;-74
2022/05/20 12:26:38;;;;;;;11.20;9.32;;;20.70;99.30;;;;;;4958521;28;20524;-75
2022/05/20 12:29:35;;;;;;;10.80;9.57;;;20.70;98.60;;;;;;4955191;28;20089;-75
2022/05/20 12:32:25;;;;;;;9.48;8.50;;;20.60;97.00;;;;;;4957227;28;20113;-75
2022/05/20 12:35:13;;;;;;;9.45;7.85;;;20.60;99.90;;;;;;4950390;28;20373;-75
2022/05/20 12:37:42;;;;;;;11.75;10.32;;;20.50;97.00;;;;;;4947509;28;20046;-75
2022/05/20 12:40:28;;;;;;;12.43;10.77;;;20.50;99.20;;;;;;4945344;28;20101;-75
2022/05/20 12:43:06;;;;;;;10.85;8.88;;;20.50;99.90;;;;;;4955430;28;20047;-74
2022/05/20 12:45:54;;;;;;;10.07;8.95;;;20.50;98.80;;;;;;4965787;28;20045;-75
2022/05/20 12:48:29;;;;;;;9.60;8.27;;;20.50;98.10;;;;;;4967757;28;20066;-75
2022/05/20 12:51:06;;;;;;;9.98;8.95;;;20.40;99.30;;;;;;4965243;28;20035;-74
2022/05/20 12:53:34;;;;;;;10.60;8.80;;;20.40;99.20;;;;;;4951447;28;20042;-75
2022/05/20 12:56:01;;;;;;;9.80;7.63;;;20.30;98.40;;;;;;4967374;28;20042;-75
2022/05/20 12:58:29;;;;;;;8.35;7.55;;;20.30;99.30;;;;;;4956109;28;20125;-74
2022/05/20 13:00:59;;;;;;;10.82;7.80;;;20.20;99.40;;;;;;4947257;28;20065;-74
2022/05/20 13:03:37;;;;;;;10.45;8.50;;;20.10;99.60;;;;;;4948976;28;20046;-75
2022/05/20 13:06:10;;;;;;;8.18;7.28;;;20.10;99.90;;;;;;4944569;28;20447;-75
2022/05/20 13:09:11;;;;;;;9.10;6.88;;;20.00;99.90;;;;;;4942887;28;20056;-74
2022/05/20 13:11:42;;;;;;;10.45;7.20;;;20.00;99.90;;;;;;4873254;29;20515;-74
2022/05/20 13:14:13;;;;;;;15.50;7.82;;;19.90;99.90;;;;;;4946303;28;20046;-73
2022/05/20 13:16:44;;;;;;;9.32;8.27;;;19.80;99.90;;;;;;4960390;28;20086;-78
2022/05/20 13:19:13;;;;;;;12.43;7.97;;;19.70;99.90;;;;;;4966810;28;20622;-78
2022/05/20 13:21:56;;;;;;;9.93;8.02;;;19.60;99.90;;;;;;4952471;28;20054;-80
2022/05/20 13:24:28;;;;;;;8.23;7.05;;;19.60;99.90;;;;;;4952682;28;20050;-80
2022/05/20 13:27:09;;;;;;;10.63;7.23;;;19.50;99.90;;;;;;4985393;28;20093;-80
2022/05/20 13:29:36;;;;;;;7.03;6.28;;;19.40;99.90;;;;;;4972754;28;20780;-80
2022/05/20 13:32:14;;;;;;;12.02;8.00;;;19.30;99.90;;;;;;4970376;28;20046;-80
2022/05/20 13:34:45;;;;;;;11.05;7.13;;;19.30;99.90;;;;;;4971210;28;20065;-80
2022/05/20 13:37:13;;;;;;;8.10;6.57;;;19.30;99.90;;;;;;4970926;28;20042;-80
2022/05/20 13:39:40;;;;;;;8.40;7.10;;;19.20;99.90;;;;;;4974621;28;20073;-80
2022/05/20 13:42:12;;;;;;;9.65;6.57;;;19.20;99.90;;;;;;4972690;28;20582;-80
2022/05/20 13:44:45;;;;;;;7.38;6.25;;;19.10;99.90;;;;;;4971806;28;20101;-80
2022/05/20 13:50:00;;;;;;;8.68;7.57;;;18.90;99.90;;;;;;4969894;28;20108;-80
2022/05/20 13:52:26;;;;;;;8.80;7.18;;;18.70;99.90;;;;;;4971589;28;20047;-79
2022/05/20 13:55:02;;;;;;;10.43;7.80;;;18.60;99.90;;;;;;4947326;28;20034;-79
2022/05/20 13:57:33;;;;;;;9.05;7.70;;;18.50;99.90;;;;;;4981918;28;20255;-80
2022/05/20 14:00:07;;;;;;;12.25;8.90;;;18.40;99.90;;;;;;4969373;28;20054;-80
2022/05/20 14:02:36;;;;;;;10.80;8.48;;;18.30;99.90;;;;;;4968351;28;20050;-80
2022/05/20 14:05:19;;;;;;;8.88;7.97;;;18.20;99.90;;;;;;4970523;28;20188;-80
2022/05/20 14:07:51;;;;;;;10.07;7.90;;;18.00;99.90;;;;;;4969965;28;20089;-80